createdAt,value
2022-11-29T00:07:40.732Z,64.40
2022-11-29T00:17:47.090Z,62.90
2022-11-29T00:27:53.349Z,66.10
2022-11-29T00:38:00.151Z,69.00
2022-11-29T00:48:06.444Z,69.40
2022-11-29T00:58:12.717Z,71.30
2022-11-29T01:08:19.401Z,79.10
2022-11-29T01:18:28.787Z,74.40
2022-11-29T01:28:35.917Z,66.70
2022-11-29T01:38:43.602Z,77.40
2022-11-29T01:48:50.277Z,80.00
2022-11-29T01:58:56.562Z,73.00
2022-11-29T02:09:02.968Z,70.40
2022-11-29T02:19:28.388Z,70.20
2022-11-29T02:29:52.736Z,67.10
2022-11-29T02:40:26.320Z,70.10
2022-11-29T02:51:03.000Z,69.80
2022-11-29T03:01:22.291Z,65.40
2022-11-29T03:11:45.572Z,62.70
2022-11-29T03:22:16.730Z,73.10
2022-11-29T03:32:30.151Z,74.50
2022-11-29T03:42:45.868Z,70.30
2022-11-29T03:52:58.100Z,70.80
2022-11-29T04:03:44.874Z,73.60
2022-11-29T04:14:18.242Z,75.90
2022-11-29T04:25:00.810Z,74.85
2022-11-29T04:35:24.944Z,70.60
2022-11-29T04:46:13.115Z,70.80
2022-11-29T04:56:31.535Z,66.30
2022-11-29T05:06:50.769Z,63.40
2022-11-29T05:17:24.805Z,69.60
2022-11-29T05:27:40.796Z,70.40
2022-11-29T05:37:51.399Z,67.70
2022-11-29T05:48:02.650Z,71.50
2022-11-29T05:58:43.294Z,73.60
2022-11-29T06:08:58.105Z,84.50
2022-11-29T06:19:06.772Z,91.90
2022-11-29T06:29:27.041Z,92.40
2022-11-29T06:39:33.505Z,83.20
2022-11-29T06:49:50.269Z,80.80
2022-11-29T07:00:19.888Z,84.70
2022-11-29T07:10:32.945Z,86.00
2022-11-29T07:20:52.993Z,89.30
2022-11-29T07:31:18.733Z,88.50
2022-11-29T07:41:41.881Z,116.20
2022-11-29T07:51:48.226Z,86.30
2022-11-29T08:01:54.563Z,91.90
2022-11-29T08:12:00.894Z,102.00
2022-11-29T08:22:07.171Z,88.10
2022-11-29T08:32:13.469Z,79.60
2022-11-29T08:42:19.701Z,86.90
2022-11-29T08:52:44.565Z,79.00
2022-11-29T09:02:50.820Z,82.20
2022-11-29T09:12:57.086Z,76.20
2022-11-29T09:23:03.984Z,71.40
2022-11-29T09:33:10.236Z,70.90
2022-11-29T09:43:33.030Z,72.50
2022-11-29T09:53:47.856Z,76.70
2022-11-29T10:03:55.961Z,78.90
2022-11-29T10:14:10.333Z,72.20
2022-11-29T10:24:21.405Z,71.80
2022-11-29T10:34:27.884Z,72.50
2022-11-29T10:44:34.792Z,73.80
2022-11-29T10:54:43.304Z,71.50
2022-11-29T11:04:51.279Z,69.00
2022-11-29T11:15:19.961Z,62.50
2022-11-29T11:25:35.837Z,65.50
2022-11-29T11:35:41.035Z,63.55
2022-11-29T11:45:54.088Z,62.70
2022-11-29T11:56:09.668Z,58.90
2022-11-29T12:06:19.377Z,57.30
2022-11-29T12:16:35.935Z,57.00
2022-11-29T12:26:58.932Z,54.60
2022-11-29T12:37:17.773Z,60.30
2022-11-29T12:47:36.139Z,59.90
2022-11-29T12:57:56.801Z,60.00
2022-11-29T13:08:23.896Z,63.30
2022-11-29T13:18:50.084Z,54.50
2022-11-29T13:28:56.772Z,56.80
2022-11-29T13:39:08.092Z,57.20
2022-11-29T13:49:44.283Z,66.30
2022-11-29T13:59:51.964Z,71.40
2022-11-29T14:10:00.373Z,76.60
2022-11-29T14:20:45.024Z,100.10
2022-11-29T14:30:56.289Z,97.70
2022-11-29T14:41:19.325Z,101.20
2022-11-29T14:51:27.718Z,103.10
2022-11-29T15:01:35.377Z,101.30
2022-11-29T15:11:50.690Z,93.10
2022-11-29T15:22:18.793Z,76.50
2022-11-29T15:32:34.331Z,86.10
2022-11-29T15:42:45.724Z,89.40
2022-11-29T15:52:51.999Z,67.80
2022-11-29T16:03:01.877Z,68.90
2022-11-29T16:13:34.383Z,70.90
2022-11-29T16:23:45.019Z,69.70
2022-11-29T16:33:53.124Z,69.70
2022-11-29T16:44:00.137Z,70.80
2022-11-29T16:54:27.580Z,68.00
2022-11-29T17:04:33.818Z,69.30
2022-11-29T17:14:40.131Z,73.10
2022-11-29T17:24:48.366Z,70.50
2022-11-29T17:34:55.024Z,69.50
2022-11-29T17:45:01.274Z,71.10
2022-11-29T17:55:08.088Z,76.40
2022-11-29T18:05:14.354Z,72.90
2022-11-29T18:15:20.646Z,74.10
2022-11-29T18:25:42.140Z,78.70
2022-11-29T18:35:48.392Z,75.70
2022-11-29T18:45:54.714Z,72.70
2022-11-29T18:56:06.761Z,81.90
2022-11-29T19:06:15.692Z,71.20
2022-11-29T19:16:23.232Z,71.40
2022-11-29T19:26:30.962Z,82.80
2022-11-29T19:36:44.434Z,86.20
2022-11-29T19:46:51.348Z,84.30
2022-11-29T19:56:59.764Z,74.70
2022-11-29T20:07:05.213Z,83.30
2022-11-29T20:17:11.512Z,85.30
2022-11-29T20:27:17.777Z,125.10
2022-11-29T20:37:45.614Z,82.70
2022-11-29T20:47:57.097Z,87.10
2022-11-29T20:58:03.354Z,94.10
2022-11-29T21:08:09.721Z,92.80
2022-11-29T21:18:24.899Z,95.50
2022-11-29T21:28:57.793Z,111.50
2022-11-29T21:39:06.113Z,79.60
2022-11-29T21:49:12.445Z,100.70
2022-11-29T21:59:18.690Z,100.30
2022-11-29T22:09:24.983Z,116.80
2022-11-29T22:19:37.309Z,113.70
2022-11-29T22:29:43.610Z,84.20
2022-11-29T22:39:50.506Z,70.90
2022-11-29T22:49:56.800Z,94.00
2022-11-29T23:00:03.314Z,71.90
2022-11-29T23:10:10.004Z,75.50
2022-11-29T23:20:16.219Z,86.90
2022-11-29T23:30:22.546Z,91.70
2022-11-29T23:40:28.801Z,74.60
2022-11-29T23:50:35.428Z,89.70
